<?xml version="1.0" encoding="utf-8"?>
<gpx xmlns:xsi="http://www.w3.org/2001/XMLSchema-instance" xmlns:xsd="http://www.w3.org/2001/XMLSchema" version="1.1" creator="Shapelink.com" xmlns="http://www.topografix.com/GPX/1/1" xmlns:gpxtpx="http://www.garmin.com/xmlschemas/TrackPointExtension/v1">
  <metadata>
    <name>Löpning 11.06 km, 2019-08-02</name>
    <desc></desc>
    <author><name>Marian Moron</name></author> 
    <time>2019-08-02T08:27:05Z</time>
  </metadata>
  <trk>
    <name>Löpning 11.06 km, 2019-08-02</name>
    <trkseg>
      <trkpt lat="53.995699484389" lon="16.685553790034">
        <ele>135.8</ele>
        <time>2019-08-02T08:27:05Z</time>
      </trkpt>
      <trkpt lat="53.995580545228" lon="16.685784459922">
        <ele>134.4</ele>
        <time>2019-08-02T08:27:12Z</time>
      </trkpt>
      <trkpt lat="53.99543117977" lon="16.686025104271">
        <ele>133.6</ele>
        <time>2019-08-02T08:27:20Z</time>
      </trkpt>
      <trkpt lat="53.995332608626" lon="16.686318135495">
        <ele>133.4</ele>
        <time>2019-08-02T08:27:28Z</time>
      </trkpt>
      <trkpt lat="53.995252477662" lon="16.686597755679">
        <ele>135.4</ele>
        <time>2019-08-02T08:27:35Z</time>
      </trkpt>
      <trkpt lat="53.995159019477" lon="16.686863294271">
        <ele>136</ele>
        <time>2019-08-02T08:27:42Z</time>
      </trkpt>
      <trkpt lat="53.995052820804" lon="16.687155654943">
        <ele>137</ele>
        <time>2019-08-02T08:27:50Z</time>
      </trkpt>
      <trkpt lat="53.994895660179" lon="16.687331507205">
        <ele>137.8</ele>
        <time>2019-08-02T08:27:57Z</time>
      </trkpt>
      <trkpt lat="53.994691560914" lon="16.687377523836">
        <ele>138.2</ele>
        <time>2019-08-02T08:28:05Z</time>
      </trkpt>
      <trkpt lat="53.994492155513" lon="16.687390180505">
        <ele>136</ele>
        <time>2019-08-02T08:28:13Z</time>
      </trkpt>
      <trkpt lat="53.994305071505" lon="16.687415326205">
        <ele>135</ele>
        <time>2019-08-02T08:28:20Z</time>
      </trkpt>
      <trkpt lat="53.994109186502" lon="16.687449943452">
        <ele>134.6</ele>
        <time>2019-08-02T08:28:28Z</time>
      </trkpt>
      <trkpt lat="53.993914642603" lon="16.687494702798">
        <ele>133</ele>
        <time>2019-08-02T08:28:36Z</time>
      </trkpt>
      <trkpt lat="53.993718170867" lon="16.687494032246">
        <ele>133.4</ele>
        <time>2019-08-02T08:28:45Z</time>
      </trkpt>
      <trkpt lat="53.993517256724" lon="16.687513645892">
        <ele>134.8</ele>
        <time>2019-08-02T08:28:53Z</time>
      </trkpt>
      <trkpt lat="53.993319276246" lon="16.687530074416">
        <ele>134.2</ele>
        <time>2019-08-02T08:29:01Z</time>
      </trkpt>
      <trkpt lat="53.99313621555" lon="16.687548430777">
        <ele>135.2</ele>
        <time>2019-08-02T08:29:09Z</time>
      </trkpt>
      <trkpt lat="53.992943096574" lon="16.687543569275">
        <ele>137.4</ele>
        <time>2019-08-02T08:29:17Z</time>
      </trkpt>
      <trkpt lat="53.992742350069" lon="16.687488081097">
        <ele>139.6</ele>
        <time>2019-08-02T08:29:25Z</time>
      </trkpt>
      <trkpt lat="53.992562306857" lon="16.687431167996">
        <ele>141.6</ele>
        <time>2019-08-02T08:29:32Z</time>
      </trkpt>
      <trkpt lat="53.992364577836" lon="16.687344247693">
        <ele>142.6</ele>
        <time>2019-08-02T08:29:40Z</time>
      </trkpt>
      <trkpt lat="53.992185959547" lon="16.687281299624">
        <ele>142.4</ele>
        <time>2019-08-02T08:29:47Z</time>
      </trkpt>
      <trkpt lat="53.991996360969" lon="16.68724643092">
        <ele>142.2</ele>
        <time>2019-08-02T08:29:54Z</time>
      </trkpt>
      <trkpt lat="53.991796452654" lon="16.687214076786">
        <ele>142.6</ele>
        <time>2019-08-02T08:30:01Z</time>
      </trkpt>
      <trkpt lat="53.991611380302" lon="16.6871642883">
        <ele>143</ele>
        <time>2019-08-02T08:30:08Z</time>
      </trkpt>
      <trkpt lat="53.991423122828" lon="16.687166048499">
        <ele>142.2</ele>
        <time>2019-08-02T08:30:15Z</time>
      </trkpt>
      <trkpt lat="53.991326311883" lon="16.687179459539">
        <ele>141.8</ele>
        <time>2019-08-02T08:30:19Z</time>
      </trkpt>
      <trkpt lat="53.991234781535" lon="16.687349444471">
        <ele>141</ele>
        <time>2019-08-02T08:30:25Z</time>
      </trkpt>
      <trkpt lat="53.991151633087" lon="16.687669297775">
        <ele>138.6</ele>
        <time>2019-08-02T08:30:33Z</time>
      </trkpt>
      <trkpt lat="53.991141658626" lon="16.688007926535">
        <ele>136.8</ele>
        <time>2019-08-02T08:30:41Z</time>
      </trkpt>
      <trkpt lat="53.99110611937" lon="16.688340352689">
        <ele>136.2</ele>
        <time>2019-08-02T08:30:49Z</time>
      </trkpt>
      <trkpt lat="53.991077034177" lon="16.688657607604">
        <ele>137</ele>
        <time>2019-08-02T08:30:56Z</time>
      </trkpt>
      <trkpt lat="53.991057588169" lon="16.688983914971">
        <ele>138.8</ele>
        <time>2019-08-02T08:31:03Z</time>
      </trkpt>
      <trkpt lat="53.991070831571" lon="16.689308881234">
        <ele>139.6</ele>
        <time>2019-08-02T08:31:10Z</time>
      </trkpt>
      <trkpt lat="53.991106035551" lon="16.689626722882">
        <ele>139.4</ele>
        <time>2019-08-02T08:31:17Z</time>
      </trkpt>
      <trkpt lat="53.991123469903" lon="16.689944396892">
        <ele>139</ele>
        <time>2019-08-02T08:31:25Z</time>
      </trkpt>
      <trkpt lat="53.991159847349" lon="16.690244217455">
        <ele>138.2</ele>
        <time>2019-08-02T08:31:32Z</time>
      </trkpt>
      <trkpt lat="53.991179963909" lon="16.69056231056">
        <ele>137.8</ele>
        <time>2019-08-02T08:31:39Z</time>
      </trkpt>
      <trkpt lat="53.991178706624" lon="16.690903621528">
        <ele>138.8</ele>
        <time>2019-08-02T08:31:46Z</time>
      </trkpt>
      <trkpt lat="53.991157500417" lon="16.691239819537">
        <ele>138.4</ele>
        <time>2019-08-02T08:31:53Z</time>
      </trkpt>
      <trkpt lat="53.991120200962" lon="16.691555062796">
        <ele>138</ele>
        <time>2019-08-02T08:32:00Z</time>
      </trkpt>
      <trkpt lat="53.991094133253" lon="16.691865863648">
        <ele>137.2</ele>
        <time>2019-08-02T08:32:07Z</time>
      </trkpt>
      <trkpt lat="53.991040824369" lon="16.692181023088">
        <ele>136.6</ele>
        <time>2019-08-02T08:32:14Z</time>
      </trkpt>
      <trkpt lat="53.991009140787" lon="16.692493835596">
        <ele>136.2</ele>
        <time>2019-08-02T08:32:21Z</time>
      </trkpt>
      <trkpt lat="53.991010649529" lon="16.692832464356">
        <ele>136.4</ele>
        <time>2019-08-02T08:32:28Z</time>
      </trkpt>
      <trkpt lat="53.991019366705" lon="16.693139409534">
        <ele>138</ele>
        <time>2019-08-02T08:32:35Z</time>
      </trkpt>
      <trkpt lat="53.991024228207" lon="16.693468818204">
        <ele>138</ele>
        <time>2019-08-02T08:32:43Z</time>
      </trkpt>
      <trkpt lat="53.991010062796" lon="16.693822785841">
        <ele>137</ele>
        <time>2019-08-02T08:32:51Z</time>
      </trkpt>
      <trkpt lat="53.991011906814" lon="16.694157391289">
        <ele>136.8</ele>
        <time>2019-08-02T08:32:59Z</time>
      </trkpt>
      <trkpt lat="53.991060438015" lon="16.694489901262">
        <ele>135</ele>
        <time>2019-08-02T08:33:07Z</time>
      </trkpt>
      <trkpt lat="53.991143083549" lon="16.694780417916">
        <ele>134.2</ele>
        <time>2019-08-02T08:33:14Z</time>
      </trkpt>
      <trkpt lat="53.99127543375" lon="16.695010249614">
        <ele>133.8</ele>
        <time>2019-08-02T08:33:21Z</time>
      </trkpt>
      <trkpt lat="53.991415830575" lon="16.695245948642">
        <ele>132.6</ele>
        <time>2019-08-02T08:33:28Z</time>
      </trkpt>
      <trkpt lat="53.991554299563" lon="16.695485419525">
        <ele>132.8</ele>
        <time>2019-08-02T08:33:35Z</time>
      </trkpt>
      <trkpt lat="53.99169704332" lon="16.695723633123">
        <ele>133</ele>
        <time>2019-08-02T08:33:42Z</time>
      </trkpt>
      <trkpt lat="53.991834338842" lon="16.695978023788">
        <ele>133.2</ele>
        <time>2019-08-02T08:33:49Z</time>
      </trkpt>
      <trkpt lat="53.991889072649" lon="16.696115151672">
        <ele>133.4</ele>
        <time>2019-08-02T08:33:53Z</time>
      </trkpt>
      <trkpt lat="53.991925533914" lon="16.69618237451">
        <ele>133.2</ele>
        <time>2019-08-02T08:34:36Z</time>
      </trkpt>
      <trkpt lat="53.99205578864" lon="16.696447829283">
        <ele>133.4</ele>
        <time>2019-08-02T08:34:45Z</time>
      </trkpt>
      <trkpt lat="53.992181852416" lon="16.696688222175">
        <ele>132.2</ele>
        <time>2019-08-02T08:34:51Z</time>
      </trkpt>
      <trkpt lat="53.992309927848" lon="16.696932638379">
        <ele>130.8</ele>
        <time>2019-08-02T08:34:57Z</time>
      </trkpt>
      <trkpt lat="53.992449989397" lon="16.697185855578">
        <ele>130.2</ele>
        <time>2019-08-02T08:35:04Z</time>
      </trkpt>
      <trkpt lat="53.992583177788" lon="16.697443766641">
        <ele>130.6</ele>
        <time>2019-08-02T08:35:11Z</time>
      </trkpt>
      <trkpt lat="53.99272214969" lon="16.697663707697">
        <ele>130.8</ele>
        <time>2019-08-02T08:35:17Z</time>
      </trkpt>
      <trkpt lat="53.992863217067" lon="16.697925977348">
        <ele>130.4</ele>
        <time>2019-08-02T08:35:24Z</time>
      </trkpt>
      <trkpt lat="53.992993890888" lon="16.698162011652">
        <ele>129.8</ele>
        <time>2019-08-02T08:35:30Z</time>
      </trkpt>
      <trkpt lat="53.993120709035" lon="16.698400728164">
        <ele>129.2</ele>
        <time>2019-08-02T08:35:36Z</time>
      </trkpt>
      <trkpt lat="53.993235373427" lon="16.698642629798">
        <ele>128.4</ele>
        <time>2019-08-02T08:35:42Z</time>
      </trkpt>
      <trkpt lat="53.993374345329" lon="16.698904312716">
        <ele>128.6</ele>
        <time>2019-08-02T08:35:49Z</time>
      </trkpt>
      <trkpt lat="53.993498984182" lon="16.699147136359">
        <ele>128</ele>
        <time>2019-08-02T08:35:56Z</time>
      </trkpt>
      <trkpt lat="53.99363661498" lon="16.699368083243">
        <ele>127.6</ele>
        <time>2019-08-02T08:36:03Z</time>
      </trkpt>
      <trkpt lat="53.993796122537" lon="16.69954603098">
        <ele>125.8</ele>
        <time>2019-08-02T08:36:10Z</time>
      </trkpt>
      <trkpt lat="53.993980440518" lon="16.699651894377">
        <ele>124.4</ele>
        <time>2019-08-02T08:36:17Z</time>
      </trkpt>
      <trkpt lat="53.994165345232" lon="16.699735042825">
        <ele>123.6</ele>
        <time>2019-08-02T08:36:24Z</time>
      </trkpt>
      <trkpt lat="53.99431135793" lon="16.699776700868">
        <ele>121.4</ele>
        <time>2019-08-02T08:36:30Z</time>
      </trkpt>
      <trkpt lat="53.994346813367" lon="16.699799583455">
        <ele>121</ele>
        <time>2019-08-02T08:36:35Z</time>
      </trkpt>
      <trkpt lat="53.994527359493" lon="16.699869656139">
        <ele>117.6</ele>
        <time>2019-08-02T08:36:44Z</time>
      </trkpt>
      <trkpt lat="53.99471201275" lon="16.699922462109">
        <ele>117.6</ele>
        <time>2019-08-02T08:36:51Z</time>
      </trkpt>
      <trkpt lat="53.994730285292" lon="16.699916175684">
        <ele>116.6</ele>
        <time>2019-08-02T08:36:54Z</time>
      </trkpt>
      <trkpt lat="53.994744450703" lon="16.699925563412">
        <ele>116.8</ele>
        <time>2019-08-02T08:36:58Z</time>
      </trkpt>
      <trkpt lat="53.994777056294" lon="16.699943752135">
        <ele>117.6</ele>
        <time>2019-08-02T08:37:01Z</time>
      </trkpt>
      <trkpt lat="53.994968331252" lon="16.700006364928">
        <ele>117.4</ele>
        <time>2019-08-02T08:37:09Z</time>
      </trkpt>
      <trkpt lat="53.9951520625" lon="16.700026062393">
        <ele>114</ele>
        <time>2019-08-02T08:37:17Z</time>
      </trkpt>
      <trkpt lat="53.995331016065" lon="16.699970406577">
        <ele>113</ele>
        <time>2019-08-02T08:37:24Z</time>
      </trkpt>
      <trkpt lat="53.99553092438" lon="16.699908464336">
        <ele>108.4</ele>
        <time>2019-08-02T08:37:31Z</time>
      </trkpt>
      <trkpt lat="53.995710548497" lon="16.699850713045">
        <ele>104</ele>
        <time>2019-08-02T08:37:38Z</time>
      </trkpt>
      <trkpt lat="53.995894028288" lon="16.69982682463">
        <ele>103.6</ele>
        <time>2019-08-02T08:37:45Z</time>
      </trkpt>
      <trkpt lat="53.996092846956" lon="16.699826992268">
        <ele>102.4</ele>
        <time>2019-08-02T08:37:50Z</time>
      </trkpt>
      <trkpt lat="53.996272890168" lon="16.699874014727">
        <ele>103.6</ele>
        <time>2019-08-02T08:37:56Z</time>
      </trkpt>
      <trkpt lat="53.996468104619" lon="16.700007119299">
        <ele>106</ele>
        <time>2019-08-02T08:38:02Z</time>
      </trkpt>
      <trkpt lat="53.99662979147" lon="16.700207195252">
        <ele>108.8</ele>
        <time>2019-08-02T08:38:07Z</time>
      </trkpt>
      <trkpt lat="53.99675468178" lon="16.700445744126">
        <ele>113.4</ele>
        <time>2019-08-02T08:38:12Z</time>
      </trkpt>
      <trkpt lat="53.996852247096" lon="16.70066417644">
        <ele>113.2</ele>
        <time>2019-08-02T08:38:18Z</time>
      </trkpt>
      <trkpt lat="53.996893318406" lon="16.700984867934">
        <ele>109.8</ele>
        <time>2019-08-02T08:38:26Z</time>
      </trkpt>
      <trkpt lat="53.996899521012" lon="16.701328525834">
        <ele>106.8</ele>
        <time>2019-08-02T08:38:33Z</time>
      </trkpt>
      <trkpt lat="53.996886948162" lon="16.701663969472">
        <ele>108.4</ele>
        <time>2019-08-02T08:38:40Z</time>
      </trkpt>
      <trkpt lat="53.996874962045" lon="16.701742340237">
        <ele>108.2</ele>
        <time>2019-08-02T08:38:54Z</time>
      </trkpt>
      <trkpt lat="53.996776055625" lon="16.702040065325">
        <ele>103.8</ele>
        <time>2019-08-02T08:39:03Z</time>
      </trkpt>
      <trkpt lat="53.996700283249" lon="16.70233385092">
        <ele>101.2</ele>
        <time>2019-08-02T08:39:10Z</time>
      </trkpt>
      <trkpt lat="53.996554438189" lon="16.702838776576">
        <ele>100.6</ele>
        <time>2019-08-02T08:39:22Z</time>
      </trkpt>
      <trkpt lat="53.996413873726" lon="16.703076571079">
        <ele>98.2</ele>
        <time>2019-08-02T08:39:29Z</time>
      </trkpt>
      <trkpt lat="53.996254030893" lon="16.70323993431">
        <ele>95.6</ele>
        <time>2019-08-02T08:39:35Z</time>
      </trkpt>
      <trkpt lat="53.996077675717" lon="16.703328866269">
        <ele>94</ele>
        <time>2019-08-02T08:39:41Z</time>
      </trkpt>
      <trkpt lat="53.995902661645" lon="16.703406901758">
        <ele>93</ele>
        <time>2019-08-02T08:39:47Z</time>
      </trkpt>
      <trkpt lat="53.995721947881" lon="16.703494324975">
        <ele>92.6</ele>
        <time>2019-08-02T08:39:54Z</time>
      </trkpt>
      <trkpt lat="53.995538300452" lon="16.703568169514">
        <ele>89.8</ele>
        <time>2019-08-02T08:40:01Z</time>
      </trkpt>
      <trkpt lat="53.99534819896" lon="16.703669171409">
        <ele>86.4</ele>
        <time>2019-08-02T08:40:08Z</time>
      </trkpt>
      <trkpt lat="53.995172598155" lon="16.703833456649">
        <ele>84.6</ele>
        <time>2019-08-02T08:40:15Z</time>
      </trkpt>
      <trkpt lat="53.995077631228" lon="16.704091200074">
        <ele>85.6</ele>
        <time>2019-08-02T08:40:21Z</time>
      </trkpt>
      <trkpt lat="53.994990124192" lon="16.704374675932">
        <ele>86.2</ele>
        <time>2019-08-02T08:40:27Z</time>
      </trkpt>
      <trkpt lat="53.994996578255" lon="16.704429912653">
        <ele>87.2</ele>
        <time>2019-08-02T08:40:28Z</time>
      </trkpt>
      <trkpt lat="53.9950347159" lon="16.704778599693">
        <ele>93.4</ele>
        <time>2019-08-02T08:40:35Z</time>
      </trkpt>
      <trkpt lat="53.99510512386" lon="16.705061237361">
        <ele>95</ele>
        <time>2019-08-02T08:40:41Z</time>
      </trkpt>
      <trkpt lat="53.995138483822" lon="16.705367595806">
        <ele>92.6</ele>
        <time>2019-08-02T08:40:48Z</time>
      </trkpt>
      <trkpt lat="53.995182404978" lon="16.705535066168">
        <ele>99.4</ele>
        <time>2019-08-02T08:40:52Z</time>
      </trkpt>
      <trkpt lat="53.995153655061" lon="16.705581250437">
        <ele>102.2</ele>
        <time>2019-08-02T08:41:35Z</time>
      </trkpt>
      <trkpt lat="53.995162875151" lon="16.705885094312">
        <ele>104.8</ele>
        <time>2019-08-02T08:41:43Z</time>
      </trkpt>
      <trkpt lat="53.995191708887" lon="16.706201678675">
        <ele>105</ele>
        <time>2019-08-02T08:41:50Z</time>
      </trkpt>
      <trkpt lat="53.995197240941" lon="16.706548689335">
        <ele>102.2</ele>
        <time>2019-08-02T08:41:56Z</time>
      </trkpt>
      <trkpt lat="53.995223811564" lon="16.70686762063">
        <ele>99.4</ele>
        <time>2019-08-02T08:42:03Z</time>
      </trkpt>
      <trkpt lat="53.995249041083" lon="16.70717607455">
        <ele>101.2</ele>
        <time>2019-08-02T08:42:09Z</time>
      </trkpt>
      <trkpt lat="53.995289274203" lon="16.707510763817">
        <ele>101.2</ele>
        <time>2019-08-02T08:42:15Z</time>
      </trkpt>
      <trkpt lat="53.995309055487" lon="16.707856517192">
        <ele>102.8</ele>
        <time>2019-08-02T08:42:22Z</time>
      </trkpt>
      <trkpt lat="53.995348450417" lon="16.708201348558">
        <ele>107.8</ele>
        <time>2019-08-02T08:42:29Z</time>
      </trkpt>
      <trkpt lat="53.99537502104" lon="16.708509718659">
        <ele>109.2</ele>
        <time>2019-08-02T08:42:36Z</time>
      </trkpt>
      <trkpt lat="53.995403938595" lon="16.708855639672">
        <ele>111.2</ele>
        <time>2019-08-02T08:42:44Z</time>
      </trkpt>
      <trkpt lat="53.995367393511" lon="16.709204075255">
        <ele>102.8</ele>
        <time>2019-08-02T08:42:51Z</time>
      </trkpt>
      <trkpt lat="53.995339230327" lon="16.709297784897">
        <ele>98.2</ele>
        <time>2019-08-02T08:42:53Z</time>
      </trkpt>
      <trkpt lat="53.995315593369" lon="16.709625684825">
        <ele>91</ele>
        <time>2019-08-02T08:43:00Z</time>
      </trkpt>
      <trkpt lat="53.995272091308" lon="16.709966492879">
        <ele>92</ele>
        <time>2019-08-02T08:43:07Z</time>
      </trkpt>
      <trkpt lat="53.995163713341" lon="16.710222476105">
        <ele>95.2</ele>
        <time>2019-08-02T08:43:14Z</time>
      </trkpt>
      <trkpt lat="53.995012503865" lon="16.710423557886">
        <ele>94.6</ele>
        <time>2019-08-02T08:43:22Z</time>
      </trkpt>
      <trkpt lat="53.994829610807" lon="16.71057661138">
        <ele>92.8</ele>
        <time>2019-08-02T08:43:31Z</time>
      </trkpt>
      <trkpt lat="53.994647136844" lon="16.71057409681">
        <ele>94.8</ele>
        <time>2019-08-02T08:43:39Z</time>
      </trkpt>
      <trkpt lat="53.99455946217" lon="16.71053554007">
        <ele>96</ele>
        <time>2019-08-02T08:43:43Z</time>
      </trkpt>
      <trkpt lat="53.994435242412" lon="16.710464796834">
        <ele>94.8</ele>
        <time>2019-08-02T08:43:55Z</time>
      </trkpt>
      <trkpt lat="53.994256959399" lon="16.710379888187">
        <ele>97.2</ele>
        <time>2019-08-02T08:44:02Z</time>
      </trkpt>
      <trkpt lat="53.994059565654" lon="16.710288441658">
        <ele>99.2</ele>
        <time>2019-08-02T08:44:09Z</time>
      </trkpt>
      <trkpt lat="53.99388555741" lon="16.710168915764">
        <ele>99.6</ele>
        <time>2019-08-02T08:44:16Z</time>
      </trkpt>
      <trkpt lat="53.993695623556" lon="16.710112337939">
        <ele>101.2</ele>
        <time>2019-08-02T08:44:23Z</time>
      </trkpt>
      <trkpt lat="53.993519016923" lon="16.7100384934">
        <ele>101</ele>
        <time>2019-08-02T08:44:30Z</time>
      </trkpt>
      <trkpt lat="53.993345260136" lon="16.709952914201">
        <ele>99.6</ele>
        <time>2019-08-02T08:44:37Z</time>
      </trkpt>
      <trkpt lat="53.993157757033" lon="16.709867335002">
        <ele>98</ele>
        <time>2019-08-02T08:44:44Z</time>
      </trkpt>
      <trkpt lat="53.992962794039" lon="16.709924248103">
        <ele>98.4</ele>
        <time>2019-08-02T08:44:51Z</time>
      </trkpt>
      <trkpt lat="53.992807058337" lon="16.710093730121">
        <ele>99.2</ele>
        <time>2019-08-02T08:44:58Z</time>
      </trkpt>
      <trkpt lat="53.992677306525" lon="16.71031761067">
        <ele>97.6</ele>
        <time>2019-08-02T08:45:06Z</time>
      </trkpt>
      <trkpt lat="53.992551829482" lon="16.710575018819">
        <ele>96.6</ele>
        <time>2019-08-02T08:45:15Z</time>
      </trkpt>
      <trkpt lat="53.992425346611" lon="16.710841227963">
        <ele>97.6</ele>
        <time>2019-08-02T08:45:24Z</time>
      </trkpt>
      <trkpt lat="53.992335408824" lon="16.711111292781">
        <ele>98</ele>
        <time>2019-08-02T08:45:32Z</time>
      </trkpt>
      <trkpt lat="53.992249075254" lon="16.711389990956">
        <ele>102</ele>
        <time>2019-08-02T08:45:39Z</time>
      </trkpt>
      <trkpt lat="53.992176236543" lon="16.711750831751">
        <ele>107</ele>
        <time>2019-08-02T08:45:48Z</time>
      </trkpt>
      <trkpt lat="53.992121083641" lon="16.71205350216">
        <ele>108.2</ele>
        <time>2019-08-02T08:45:55Z</time>
      </trkpt>
      <trkpt lat="53.992102559642" lon="16.712375702396">
        <ele>109.6</ele>
        <time>2019-08-02T08:46:03Z</time>
      </trkpt>
      <trkpt lat="53.992098284873" lon="16.712704943428">
        <ele>111.2</ele>
        <time>2019-08-02T08:46:11Z</time>
      </trkpt>
      <trkpt lat="53.992055872459" lon="16.713028820044">
        <ele>110.8</ele>
        <time>2019-08-02T08:46:19Z</time>
      </trkpt>
      <trkpt lat="53.991978088427" lon="16.713316570671">
        <ele>111</ele>
        <time>2019-08-02T08:46:27Z</time>
      </trkpt>
      <trkpt lat="53.991870297193" lon="16.713593173371">
        <ele>111.4</ele>
        <time>2019-08-02T08:46:35Z</time>
      </trkpt>
      <trkpt lat="53.991761835407" lon="16.713846809665">
        <ele>111.8</ele>
        <time>2019-08-02T08:46:43Z</time>
      </trkpt>
      <trkpt lat="53.991641219866" lon="16.714092399335">
        <ele>113.6</ele>
        <time>2019-08-02T08:46:51Z</time>
      </trkpt>
      <trkpt lat="53.991525130551" lon="16.714331115847">
        <ele>115.4</ele>
        <time>2019-08-02T08:46:59Z</time>
      </trkpt>
      <trkpt lat="53.991432594375" lon="16.714610736031">
        <ele>116.2</ele>
        <time>2019-08-02T08:47:07Z</time>
      </trkpt>
      <trkpt lat="53.991356486723" lon="16.714902090875">
        <ele>117.4</ele>
        <time>2019-08-02T08:47:15Z</time>
      </trkpt>
      <trkpt lat="53.99135673818" lon="16.715212472632">
        <ele>119.4</ele>
        <time>2019-08-02T08:47:23Z</time>
      </trkpt>
      <trkpt lat="53.991472576038" lon="16.715443226339">
        <ele>121.6</ele>
        <time>2019-08-02T08:47:31Z</time>
      </trkpt>
      <trkpt lat="53.991602746945" lon="16.715682781041">
        <ele>123</ele>
        <time>2019-08-02T08:47:39Z</time>
      </trkpt>
      <trkpt lat="53.991685727755" lon="16.715962065949">
        <ele>124.6</ele>
        <time>2019-08-02T08:47:46Z</time>
      </trkpt>
      <trkpt lat="53.991704000297" lon="16.716291726076">
        <ele>125</ele>
        <time>2019-08-02T08:47:54Z</time>
      </trkpt>
      <trkpt lat="53.991651110508" lon="16.716601437281">
        <ele>125.6</ele>
        <time>2019-08-02T08:48:02Z</time>
      </trkpt>
      <trkpt lat="53.991504678715" lon="16.716818277034">
        <ele>123.8</ele>
        <time>2019-08-02T08:48:11Z</time>
      </trkpt>
      <trkpt lat="53.991358582198" lon="16.717006115413">
        <ele>122.6</ele>
        <time>2019-08-02T08:48:19Z</time>
      </trkpt>
      <trkpt lat="53.991272500085" lon="16.717285316502">
        <ele>122.8</ele>
        <time>2019-08-02T08:48:26Z</time>
      </trkpt>
      <trkpt lat="53.991264788737" lon="16.717596368811">
        <ele>124.6</ele>
        <time>2019-08-02T08:48:33Z</time>
      </trkpt>
      <trkpt lat="53.991361851139" lon="16.717871546588">
        <ele>125.8</ele>
        <time>2019-08-02T08:48:42Z</time>
      </trkpt>
      <trkpt lat="53.99153694903" lon="16.717841287929">
        <ele>129.6</ele>
        <time>2019-08-02T08:48:52Z</time>
      </trkpt>
      <trkpt lat="53.991728140169" lon="16.717748248839">
        <ele>131.8</ele>
        <time>2019-08-02T08:49:00Z</time>
      </trkpt>
      <trkpt lat="53.99184707933" lon="16.71796944718">
        <ele>135.4</ele>
        <time>2019-08-02T08:49:08Z</time>
      </trkpt>
      <trkpt lat="53.991825621666" lon="16.718030718869">
        <ele>134.6</ele>
        <time>2019-08-02T08:49:10Z</time>
      </trkpt>
      <trkpt lat="53.991635687812" lon="16.718035496552">
        <ele>136.2</ele>
        <time>2019-08-02T08:49:18Z</time>
      </trkpt>
      <trkpt lat="53.99145480641" lon="16.717973386673">
        <ele>135.4</ele>
        <time>2019-08-02T08:49:25Z</time>
      </trkpt>
      <trkpt lat="53.991272248628" lon="16.717844305413">
        <ele>133.4</ele>
        <time>2019-08-02T08:49:33Z</time>
      </trkpt>
      <trkpt lat="53.991210138749" lon="16.717512801268">
        <ele>131</ele>
        <time>2019-08-02T08:49:40Z</time>
      </trkpt>
      <trkpt lat="53.991248863127" lon="16.717181632399">
        <ele>130.8</ele>
        <time>2019-08-02T08:49:47Z</time>
      </trkpt>
      <trkpt lat="53.991388254124" lon="16.71693428253">
        <ele>129.8</ele>
        <time>2019-08-02T08:49:54Z</time>
      </trkpt>
      <trkpt lat="53.991535775564" lon="16.716743007572">
        <ele>128.6</ele>
        <time>2019-08-02T08:50:01Z</time>
      </trkpt>
      <trkpt lat="53.991634598165" lon="16.71647243984">
        <ele>127.2</ele>
        <time>2019-08-02T08:50:09Z</time>
      </trkpt>
      <trkpt lat="53.991641890418" lon="16.716432541996">
        <ele>126.8</ele>
        <time>2019-08-02T08:50:11Z</time>
      </trkpt>
      <trkpt lat="53.9916400464" lon="16.71642298663">
        <ele>127.2</ele>
        <time>2019-08-02T08:50:24Z</time>
      </trkpt>
      <trkpt lat="53.991651613422" lon="16.71609776891">
        <ele>124</ele>
        <time>2019-08-02T08:50:33Z</time>
      </trkpt>
      <trkpt lat="53.991584222946" lon="16.715800714374">
        <ele>122.2</ele>
        <time>2019-08-02T08:50:39Z</time>
      </trkpt>
      <trkpt lat="53.991469390916" lon="16.715543222406">
        <ele>120.2</ele>
        <time>2019-08-02T08:50:45Z</time>
      </trkpt>
      <trkpt lat="53.991353553058" lon="16.715306014636">
        <ele>119</ele>
        <time>2019-08-02T08:50:51Z</time>
      </trkpt>
      <trkpt lat="53.991319103449" lon="16.71499974001">
        <ele>120</ele>
        <time>2019-08-02T08:50:57Z</time>
      </trkpt>
      <trkpt lat="53.99136428189" lon="16.71468960971">
        <ele>119.6</ele>
        <time>2019-08-02T08:51:03Z</time>
      </trkpt>
      <trkpt lat="53.991468385088" lon="16.714426082774">
        <ele>119.2</ele>
        <time>2019-08-02T08:51:09Z</time>
      </trkpt>
      <trkpt lat="53.991582546566" lon="16.714184097321">
        <ele>118.4</ele>
        <time>2019-08-02T08:51:15Z</time>
      </trkpt>
      <trkpt lat="53.991715232043" lon="16.713910847381">
        <ele>118.4</ele>
        <time>2019-08-02T08:51:21Z</time>
      </trkpt>
      <trkpt lat="53.991829980254" lon="16.713666598815">
        <ele>118</ele>
        <time>2019-08-02T08:51:27Z</time>
      </trkpt>
      <trkpt lat="53.991931652701" lon="16.713378261455">
        <ele>116.8</ele>
        <time>2019-08-02T08:51:34Z</time>
      </trkpt>
      <trkpt lat="53.99201136457" lon="16.713060252169">
        <ele>117.2</ele>
        <time>2019-08-02T08:51:41Z</time>
      </trkpt>
      <trkpt lat="53.992065930739" lon="16.712578712014">
        <ele>118</ele>
        <time>2019-08-02T08:51:52Z</time>
      </trkpt>
      <trkpt lat="53.992080599064" lon="16.71227059337">
        <ele>115.8</ele>
        <time>2019-08-02T08:51:58Z</time>
      </trkpt>
      <trkpt lat="53.992126950971" lon="16.711971862454">
        <ele>114.4</ele>
        <time>2019-08-02T08:52:04Z</time>
      </trkpt>
      <trkpt lat="53.992193587076" lon="16.711665504009">
        <ele>112.2</ele>
        <time>2019-08-02T08:52:11Z</time>
      </trkpt>
      <trkpt lat="53.992272293117" lon="16.711369036206">
        <ele>109.4</ele>
        <time>2019-08-02T08:52:17Z</time>
      </trkpt>
      <trkpt lat="53.992362649999" lon="16.711079022466">
        <ele>106.6</ele>
        <time>2019-08-02T08:52:23Z</time>
      </trkpt>
      <trkpt lat="53.99247153088" lon="16.710775932962">
        <ele>106.6</ele>
        <time>2019-08-02T08:52:30Z</time>
      </trkpt>
      <trkpt lat="53.992569012377" lon="16.710515842605">
        <ele>107</ele>
        <time>2019-08-02T08:52:36Z</time>
      </trkpt>
      <trkpt lat="53.9926877839" lon="16.710239072267">
        <ele>109</ele>
        <time>2019-08-02T08:52:43Z</time>
      </trkpt>
      <trkpt lat="53.992822229576" lon="16.710013934433">
        <ele>108.8</ele>
        <time>2019-08-02T08:52:49Z</time>
      </trkpt>
      <trkpt lat="53.992996405458" lon="16.709867335002">
        <ele>106</ele>
        <time>2019-08-02T08:52:55Z</time>
      </trkpt>
      <trkpt lat="53.993189105339" lon="16.709875800721">
        <ele>103.8</ele>
        <time>2019-08-02T08:53:02Z</time>
      </trkpt>
      <trkpt lat="53.993369400008" lon="16.709933971107">
        <ele>101.4</ele>
        <time>2019-08-02T08:53:09Z</time>
      </trkpt>
      <trkpt lat="53.993558076577" lon="16.710028938034">
        <ele>101.6</ele>
        <time>2019-08-02T08:53:16Z</time>
      </trkpt>
      <trkpt lat="53.993747172241" lon="16.710127173902">
        <ele>101.2</ele>
        <time>2019-08-02T08:53:24Z</time>
      </trkpt>
      <trkpt lat="53.993928556557" lon="16.710217949879">
        <ele>100.4</ele>
        <time>2019-08-02T08:53:32Z</time>
      </trkpt>
      <trkpt lat="53.994119328601" lon="16.710290872409">
        <ele>101</ele>
        <time>2019-08-02T08:53:39Z</time>
      </trkpt>
      <trkpt lat="53.994315800337" lon="16.710375697237">
        <ele>100.8</ele>
        <time>2019-08-02T08:53:46Z</time>
      </trkpt>
      <trkpt lat="53.994492490789" lon="16.710450296147">
        <ele>103</ele>
        <time>2019-08-02T08:53:53Z</time>
      </trkpt>
      <trkpt lat="53.994694075484" lon="16.710511400198">
        <ele>101.8</ele>
        <time>2019-08-02T08:54:01Z</time>
      </trkpt>
      <trkpt lat="53.994883087329" lon="16.710460019151">
        <ele>101.2</ele>
        <time>2019-08-02T08:54:08Z</time>
      </trkpt>
      <trkpt lat="53.995052904623" lon="16.710280981767">
        <ele>98.6</ele>
        <time>2019-08-02T08:54:15Z</time>
      </trkpt>
      <trkpt lat="53.995189278136" lon="16.710053748458">
        <ele>98.2</ele>
        <time>2019-08-02T08:54:22Z</time>
      </trkpt>
      <trkpt lat="53.995261111019" lon="16.709740265398">
        <ele>98</ele>
        <time>2019-08-02T08:54:30Z</time>
      </trkpt>
      <trkpt lat="53.995258344992" lon="16.709697182432">
        <ele>98</ele>
        <time>2019-08-02T08:54:31Z</time>
      </trkpt>
      <trkpt lat="53.995228002514" lon="16.709527784233">
        <ele>96</ele>
        <time>2019-08-02T08:54:38Z</time>
      </trkpt>
      <trkpt lat="53.995222051365" lon="16.709205919273">
        <ele>92.6</ele>
        <time>2019-08-02T08:54:57Z</time>
      </trkpt>
      <trkpt lat="53.995207131583" lon="16.708885646874">
        <ele>90.4</ele>
        <time>2019-08-02T08:55:04Z</time>
      </trkpt>
      <trkpt lat="53.995220207347" lon="16.708559423326">
        <ele>91.6</ele>
        <time>2019-08-02T08:55:11Z</time>
      </trkpt>
      <trkpt lat="53.995238815165" lon="16.708255579451">
        <ele>89.4</ele>
        <time>2019-08-02T08:55:17Z</time>
      </trkpt>
      <trkpt lat="53.995184332815" lon="16.70793966564">
        <ele>89.4</ele>
        <time>2019-08-02T08:55:24Z</time>
      </trkpt>
      <trkpt lat="53.99510931481" lon="16.707653591393">
        <ele>90</ele>
        <time>2019-08-02T08:55:31Z</time>
      </trkpt>
      <trkpt lat="53.995105040041" lon="16.707609921694">
        <ele>90</ele>
        <time>2019-08-02T08:55:32Z</time>
      </trkpt>
      <trkpt lat="53.995090455535" lon="16.707463406082">
        <ele>91</ele>
        <time>2019-08-02T08:55:38Z</time>
      </trkpt>
      <trkpt lat="53.995079559065" lon="16.707389561543">
        <ele>90.8</ele>
        <time>2019-08-02T08:55:40Z</time>
      </trkpt>
      <trkpt lat="53.995083750015" lon="16.707057722122">
        <ele>90.2</ele>
        <time>2019-08-02T08:55:47Z</time>
      </trkpt>
      <trkpt lat="53.995085677852" lon="16.706714483317">
        <ele>89.6</ele>
        <time>2019-08-02T08:55:54Z</time>
      </trkpt>
      <trkpt lat="53.995058436677" lon="16.706371915064">
        <ele>89.8</ele>
        <time>2019-08-02T08:56:02Z</time>
      </trkpt>
      <trkpt lat="53.995036727556" lon="16.706065305162">
        <ele>87.4</ele>
        <time>2019-08-02T08:56:09Z</time>
      </trkpt>
      <trkpt lat="53.995005463069" lon="16.705713013905">
        <ele>87.6</ele>
        <time>2019-08-02T08:56:17Z</time>
      </trkpt>
      <trkpt lat="53.994997416445" lon="16.705381593579">
        <ele>89.8</ele>
        <time>2019-08-02T08:56:24Z</time>
      </trkpt>
      <trkpt lat="53.995008396734" lon="16.705068613433">
        <ele>92.4</ele>
        <time>2019-08-02T08:56:31Z</time>
      </trkpt>
      <trkpt lat="53.994988363993" lon="16.704753453993">
        <ele>95.4</ele>
        <time>2019-08-02T08:56:39Z</time>
      </trkpt>
      <trkpt lat="53.994993393133" lon="16.704433600689">
        <ele>98.4</ele>
        <time>2019-08-02T08:56:46Z</time>
      </trkpt>
      <trkpt lat="53.995064471645" lon="16.704115507584">
        <ele>101.4</ele>
        <time>2019-08-02T08:56:53Z</time>
      </trkpt>
      <trkpt lat="53.995162036961" lon="16.703838904884">
        <ele>104</ele>
        <time>2019-08-02T08:57:02Z</time>
      </trkpt>
      <trkpt lat="53.995201348072" lon="16.703758606282">
        <ele>104.4</ele>
        <time>2019-08-02T08:57:05Z</time>
      </trkpt>
      <trkpt lat="53.995286089081" lon="16.703651988514">
        <ele>105</ele>
        <time>2019-08-02T08:57:17Z</time>
      </trkpt>
      <trkpt lat="53.99545716366" lon="16.7035592847">
        <ele>101</ele>
        <time>2019-08-02T08:57:27Z</time>
      </trkpt>
      <trkpt lat="53.995648354799" lon="16.703440010263">
        <ele>98.2</ele>
        <time>2019-08-02T08:57:36Z</time>
      </trkpt>
      <trkpt lat="53.995830744943" lon="16.703346049164">
        <ele>93.4</ele>
        <time>2019-08-02T08:57:42Z</time>
      </trkpt>
      <trkpt lat="53.99601456001" lon="16.703204227416">
        <ele>86.6</ele>
        <time>2019-08-02T08:57:49Z</time>
      </trkpt>
      <trkpt lat="53.996229471926" lon="16.703116217466">
        <ele>88.4</ele>
        <time>2019-08-02T08:57:57Z</time>
      </trkpt>
      <trkpt lat="53.996399624496" lon="16.70294321505">
        <ele>93.4</ele>
        <time>2019-08-02T08:58:04Z</time>
      </trkpt>
      <trkpt lat="53.996542452072" lon="16.702708438031">
        <ele>100.2</ele>
        <time>2019-08-02T08:58:12Z</time>
      </trkpt>
      <trkpt lat="53.996637083723" lon="16.702405516165">
        <ele>102.4</ele>
        <time>2019-08-02T08:58:21Z</time>
      </trkpt>
      <trkpt lat="53.996726518596" lon="16.702113742226">
        <ele>105.2</ele>
        <time>2019-08-02T08:58:29Z</time>
      </trkpt>
      <trkpt lat="53.996822407532" lon="16.701807635238">
        <ele>108.6</ele>
        <time>2019-08-02T08:58:38Z</time>
      </trkpt>
      <trkpt lat="53.99688795399" lon="16.701482501337">
        <ele>109.2</ele>
        <time>2019-08-02T08:58:47Z</time>
      </trkpt>
      <trkpt lat="53.996875129683" lon="16.70114697388">
        <ele>110</ele>
        <time>2019-08-02T08:58:56Z</time>
      </trkpt>
      <trkpt lat="53.99680748775" lon="16.70084522548">
        <ele>112</ele>
        <time>2019-08-02T08:59:05Z</time>
      </trkpt>
      <trkpt lat="53.99672618332" lon="16.700537693569">
        <ele>113</ele>
        <time>2019-08-02T08:59:13Z</time>
      </trkpt>
      <trkpt lat="53.996624929968" lon="16.700282716171">
        <ele>111.8</ele>
        <time>2019-08-02T08:59:21Z</time>
      </trkpt>
      <trkpt lat="53.996477492347" lon="16.700073503947">
        <ele>112.4</ele>
        <time>2019-08-02T08:59:30Z</time>
      </trkpt>
      <trkpt lat="53.996298203506" lon="16.699997983028">
        <ele>114.4</ele>
        <time>2019-08-02T08:59:39Z</time>
      </trkpt>
      <trkpt lat="53.996108688747" lon="16.700026649126">
        <ele>117</ele>
        <time>2019-08-02T08:59:48Z</time>
      </trkpt>
      <trkpt lat="53.995911881735" lon="16.700077191983">
        <ele>117.4</ele>
        <time>2019-08-02T08:59:58Z</time>
      </trkpt>
      <trkpt lat="53.995733263446" lon="16.700197136972">
        <ele>117.6</ele>
        <time>2019-08-02T09:00:08Z</time>
      </trkpt>
      <trkpt lat="53.995553220234" lon="16.700260252679">
        <ele>117.4</ele>
        <time>2019-08-02T09:00:17Z</time>
      </trkpt>
      <trkpt lat="53.995372841746" lon="16.700261593783">
        <ele>119.2</ele>
        <time>2019-08-02T09:00:26Z</time>
      </trkpt>
      <trkpt lat="53.995175280363" lon="16.700209709822">
        <ele>115.6</ele>
        <time>2019-08-02T09:00:34Z</time>
      </trkpt>
      <trkpt lat="53.994995153332" lon="16.700127818659">
        <ele>112.2</ele>
        <time>2019-08-02T09:00:41Z</time>
      </trkpt>
      <trkpt lat="53.994811422084" lon="16.700049950808">
        <ele>112.2</ele>
        <time>2019-08-02T09:00:48Z</time>
      </trkpt>
      <trkpt lat="53.994634480175" lon="16.69999110987">
        <ele>109.4</ele>
        <time>2019-08-02T09:00:56Z</time>
      </trkpt>
      <trkpt lat="53.994440690647" lon="16.699927239792">
        <ele>110</ele>
        <time>2019-08-02T09:01:05Z</time>
      </trkpt>
      <trkpt lat="53.994242793988" lon="16.699854149624">
        <ele>109.8</ele>
        <time>2019-08-02T09:01:13Z</time>
      </trkpt>
      <trkpt lat="53.994061996405" lon="16.699821124938">
        <ele>111.6</ele>
        <time>2019-08-02T09:01:20Z</time>
      </trkpt>
      <trkpt lat="53.993867703963" lon="16.699739904327">
        <ele>116.6</ele>
        <time>2019-08-02T09:01:27Z</time>
      </trkpt>
      <trkpt lat="53.993674920263" lon="16.699607637945">
        <ele>119.8</ele>
        <time>2019-08-02T09:01:35Z</time>
      </trkpt>
      <trkpt lat="53.99352681209" lon="16.699410663295">
        <ele>117.8</ele>
        <time>2019-08-02T09:01:43Z</time>
      </trkpt>
      <trkpt lat="53.993392366414" lon="16.699164235435">
        <ele>116</ele>
        <time>2019-08-02T09:01:52Z</time>
      </trkpt>
      <trkpt lat="53.993267643742" lon="16.698936247755">
        <ele>118</ele>
        <time>2019-08-02T09:02:00Z</time>
      </trkpt>
      <trkpt lat="53.993140993233" lon="16.69869945908">
        <ele>120.8</ele>
        <time>2019-08-02T09:02:08Z</time>
      </trkpt>
      <trkpt lat="53.993013672172" lon="16.698456551618">
        <ele>122</ele>
        <time>2019-08-02T09:02:16Z</time>
      </trkpt>
      <trkpt lat="53.99289481683" lon="16.698225630273">
        <ele>123.4</ele>
        <time>2019-08-02T09:02:23Z</time>
      </trkpt>
      <trkpt lat="53.99278333756" lon="16.697978364223">
        <ele>123</ele>
        <time>2019-08-02T09:02:30Z</time>
      </trkpt>
      <trkpt lat="53.992661883829" lon="16.697733528924">
        <ele>124</ele>
        <time>2019-08-02T09:02:37Z</time>
      </trkpt>
      <trkpt lat="53.992542106478" lon="16.697499171">
        <ele>123.8</ele>
        <time>2019-08-02T09:02:44Z</time>
      </trkpt>
      <trkpt lat="53.992419395462" lon="16.697255844443">
        <ele>122.2</ele>
        <time>2019-08-02T09:02:52Z</time>
      </trkpt>
      <trkpt lat="53.992395339409" lon="16.697207061785">
        <ele>122.4</ele>
        <time>2019-08-02T09:02:54Z</time>
      </trkpt>
      <trkpt lat="53.992337001385" lon="16.697112178677">
        <ele>124.8</ele>
        <time>2019-08-02T09:04:30Z</time>
      </trkpt>
      <trkpt lat="53.992253350023" lon="16.696844460791">
        <ele>124.8</ele>
        <time>2019-08-02T09:04:38Z</time>
      </trkpt>
      <trkpt lat="53.992109684257" lon="16.696610354324">
        <ele>125.8</ele>
        <time>2019-08-02T09:04:45Z</time>
      </trkpt>
      <trkpt lat="53.991965012663" lon="16.696415810425">
        <ele>127.6</ele>
        <time>2019-08-02T09:04:52Z</time>
      </trkpt>
      <trkpt lat="53.99183953562" lon="16.696172232411">
        <ele>127.6</ele>
        <time>2019-08-02T09:04:59Z</time>
      </trkpt>
      <trkpt lat="53.991715734957" lon="16.695936617202">
        <ele>127.8</ele>
        <time>2019-08-02T09:05:06Z</time>
      </trkpt>
      <trkpt lat="53.991593359217" lon="16.695700079984">
        <ele>129.2</ele>
        <time>2019-08-02T09:05:13Z</time>
      </trkpt>
      <trkpt lat="53.991504427258" lon="16.695408976597">
        <ele>131.4</ele>
        <time>2019-08-02T09:05:21Z</time>
      </trkpt>
      <trkpt lat="53.991371574143" lon="16.695150394982">
        <ele>132.2</ele>
        <time>2019-08-02T09:05:29Z</time>
      </trkpt>
      <trkpt lat="53.991214664975" lon="16.694966831372">
        <ele>134.4</ele>
        <time>2019-08-02T09:05:36Z</time>
      </trkpt>
      <trkpt lat="53.991077369453" lon="16.694556872643">
        <ele>135.6</ele>
        <time>2019-08-02T09:05:47Z</time>
      </trkpt>
      <trkpt lat="53.991005955665" lon="16.694270295482">
        <ele>137.2</ele>
        <time>2019-08-02T09:05:54Z</time>
      </trkpt>
      <trkpt lat="53.990988940408" lon="16.693960500458">
        <ele>139.4</ele>
        <time>2019-08-02T09:06:01Z</time>
      </trkpt>
      <trkpt lat="53.990999166326" lon="16.693644083733">
        <ele>139.4</ele>
        <time>2019-08-02T09:06:08Z</time>
      </trkpt>
      <trkpt lat="53.991003357276" lon="16.693310987027">
        <ele>140.8</ele>
        <time>2019-08-02T09:06:16Z</time>
      </trkpt>
      <trkpt lat="53.991003273457" lon="16.693003455116">
        <ele>139.4</ele>
        <time>2019-08-02T09:06:23Z</time>
      </trkpt>
      <trkpt lat="53.991003105819" lon="16.692691899893">
        <ele>140.6</ele>
        <time>2019-08-02T09:06:30Z</time>
      </trkpt>
      <trkpt lat="53.991004446923" lon="16.692343296672">
        <ele>140.8</ele>
        <time>2019-08-02T09:06:38Z</time>
      </trkpt>
      <trkpt lat="53.991011320081" lon="16.692019252418">
        <ele>141</ele>
        <time>2019-08-02T09:06:45Z</time>
      </trkpt>
      <trkpt lat="53.991013834651" lon="16.691707194281">
        <ele>142.8</ele>
        <time>2019-08-02T09:06:52Z</time>
      </trkpt>
      <trkpt lat="53.991030095537" lon="16.691359932164">
        <ele>144.4</ele>
        <time>2019-08-02T09:07:00Z</time>
      </trkpt>
      <trkpt lat="53.991062784947" lon="16.691044102172">
        <ele>145.6</ele>
        <time>2019-08-02T09:07:07Z</time>
      </trkpt>
      <trkpt lat="53.991085835172" lon="16.690728188361">
        <ele>144.6</ele>
        <time>2019-08-02T09:07:14Z</time>
      </trkpt>
      <trkpt lat="53.991133444364" lon="16.690417974242">
        <ele>141.6</ele>
        <time>2019-08-02T09:07:21Z</time>
      </trkpt>
      <trkpt lat="53.991100335859" lon="16.690111867254">
        <ele>140</ele>
        <time>2019-08-02T09:07:28Z</time>
      </trkpt>
      <trkpt lat="53.991013834651" lon="16.689825793007">
        <ele>140.2</ele>
        <time>2019-08-02T09:07:35Z</time>
      </trkpt>
      <trkpt lat="53.990982486345" lon="16.689523038779">
        <ele>141.8</ele>
        <time>2019-08-02T09:07:42Z</time>
      </trkpt>
      <trkpt lat="53.99094686327" lon="16.689216847972">
        <ele>141.6</ele>
        <time>2019-08-02T09:07:49Z</time>
      </trkpt>
      <trkpt lat="53.990950299849" lon="16.688886852569">
        <ele>142</ele>
        <time>2019-08-02T09:07:57Z</time>
      </trkpt>
      <trkpt lat="53.990974355902" lon="16.688544284316">
        <ele>142.6</ele>
        <time>2019-08-02T09:08:05Z</time>
      </trkpt>
      <trkpt lat="53.991018528515" lon="16.68821873132">
        <ele>141.4</ele>
        <time>2019-08-02T09:08:13Z</time>
      </trkpt>
      <trkpt lat="53.991102263696" lon="16.6879354231">
        <ele>141.4</ele>
        <time>2019-08-02T09:08:20Z</time>
      </trkpt>
      <trkpt lat="53.99114132335" lon="16.687633255605">
        <ele>143.6</ele>
        <time>2019-08-02T09:08:27Z</time>
      </trkpt>
      <trkpt lat="53.991210557844" lon="16.687319185812">
        <ele>144.2</ele>
        <time>2019-08-02T09:08:35Z</time>
      </trkpt>
      <trkpt lat="53.991336873077" lon="16.687077619454">
        <ele>142.8</ele>
        <time>2019-08-02T09:08:42Z</time>
      </trkpt>
      <trkpt lat="53.991525633465" lon="16.687048282804">
        <ele>141.6</ele>
        <time>2019-08-02T09:08:49Z</time>
      </trkpt>
      <trkpt lat="53.99171883626" lon="16.687041493465">
        <ele>141.2</ele>
        <time>2019-08-02T09:08:56Z</time>
      </trkpt>
      <trkpt lat="53.991915224177" lon="16.68704358894">
        <ele>140</ele>
        <time>2019-08-02T09:09:03Z</time>
      </trkpt>
      <trkpt lat="53.992107421144" lon="16.686988855133">
        <ele>137.2</ele>
        <time>2019-08-02T09:09:10Z</time>
      </trkpt>
      <trkpt lat="53.992271622565" lon="16.687044678587">
        <ele>138.4</ele>
        <time>2019-08-02T09:09:17Z</time>
      </trkpt>
      <trkpt lat="53.992444038248" lon="16.687214914976">
        <ele>139.6</ele>
        <time>2019-08-02T09:09:25Z</time>
      </trkpt>
      <trkpt lat="53.992640929079" lon="16.687294878302">
        <ele>140</ele>
        <time>2019-08-02T09:09:32Z</time>
      </trkpt>
      <trkpt lat="53.992837568453" lon="16.687339637648">
        <ele>140.2</ele>
        <time>2019-08-02T09:09:39Z</time>
      </trkpt>
      <trkpt lat="53.99303647094" lon="16.687367800832">
        <ele>138</ele>
        <time>2019-08-02T09:09:46Z</time>
      </trkpt>
      <trkpt lat="53.993226488613" lon="16.687392527437">
        <ele>137.6</ele>
        <time>2019-08-02T09:09:53Z</time>
      </trkpt>
      <trkpt lat="53.993412147698" lon="16.687388504125">
        <ele>138.6</ele>
        <time>2019-08-02T09:10:00Z</time>
      </trkpt>
      <trkpt lat="53.993596130403" lon="16.687363106968">
        <ele>139.2</ele>
        <time>2019-08-02T09:10:07Z</time>
      </trkpt>
      <trkpt lat="53.993788159732" lon="16.687327064798">
        <ele>138.8</ele>
        <time>2019-08-02T09:10:14Z</time>
      </trkpt>
      <trkpt lat="53.993983877097" lon="16.687300326537">
        <ele>137.6</ele>
        <time>2019-08-02T09:10:21Z</time>
      </trkpt>
      <trkpt lat="53.994180097376" lon="16.687285071479">
        <ele>138.6</ele>
        <time>2019-08-02T09:10:28Z</time>
      </trkpt>
      <trkpt lat="53.994382687899" lon="16.687242407608">
        <ele>138.6</ele>
        <time>2019-08-02T09:10:36Z</time>
      </trkpt>
      <trkpt lat="53.994577315617" lon="16.687212484225">
        <ele>137.2</ele>
        <time>2019-08-02T09:10:44Z</time>
      </trkpt>
      <trkpt lat="53.994782336891" lon="16.687181471195">
        <ele>134.8</ele>
        <time>2019-08-02T09:10:52Z</time>
      </trkpt>
      <trkpt lat="53.994966654872" lon="16.687127156483">
        <ele>131</ele>
        <time>2019-08-02T09:11:00Z</time>
      </trkpt>
      <trkpt lat="53.995119121633" lon="16.686939737199">
        <ele>129.8</ele>
        <time>2019-08-02T09:11:08Z</time>
      </trkpt>
      <trkpt lat="53.99520067752" lon="16.686664475603">
        <ele>130.4</ele>
        <time>2019-08-02T09:11:15Z</time>
      </trkpt>
      <trkpt lat="53.995335877567" lon="16.686117556628">
        <ele>134.4</ele>
        <time>2019-08-02T09:11:29Z</time>
      </trkpt>
      <trkpt lat="53.995445596638" lon="16.685858304461">
        <ele>135.8</ele>
        <time>2019-08-02T09:11:36Z</time>
      </trkpt>
      <trkpt lat="53.99558373035" lon="16.685638111948">
        <ele>136.6</ele>
        <time>2019-08-02T09:11:43Z</time>
      </trkpt>
      <trkpt lat="53.995733263446" lon="16.685445579705">
        <ele>135.2</ele>
        <time>2019-08-02T09:11:50Z</time>
      </trkpt>
      <trkpt lat="53.995806772709" lon="16.685357653574">
        <ele>134.2</ele>
        <time>2019-08-02T09:11:55Z</time>
      </trkpt>
      <trkpt lat="53.995896878134" lon="16.685277019696">
        <ele>131.4</ele>
        <time>2019-08-02T09:12:46Z</time>
      </trkpt>
      <trkpt lat="53.996053871121" lon="16.685095300104">
        <ele>131.4</ele>
        <time>2019-08-02T09:12:54Z</time>
      </trkpt>
      <trkpt lat="53.99621572561" lon="16.684935205814">
        <ele>130.4</ele>
        <time>2019-08-02T09:13:01Z</time>
      </trkpt>
      <trkpt lat="53.996389063302" lon="16.684797072102">
        <ele>128.4</ele>
        <time>2019-08-02T09:13:08Z</time>
      </trkpt>
      <trkpt lat="53.99656944179" lon="16.684696321664">
        <ele>127.8</ele>
        <time>2019-08-02T09:13:15Z</time>
      </trkpt>
      <trkpt lat="53.996759878558" lon="16.684575203209">
        <ele>128.2</ele>
        <time>2019-08-02T09:13:22Z</time>
      </trkpt>
      <trkpt lat="53.996955260647" lon="16.684474285133">
        <ele>130.4</ele>
        <time>2019-08-02T09:13:29Z</time>
      </trkpt>
      <trkpt lat="53.997148211985" lon="16.684361632397">
        <ele>130.2</ele>
        <time>2019-08-02T09:13:36Z</time>
      </trkpt>
      <trkpt lat="53.997315011795" lon="16.684213440405">
        <ele>128.4</ele>
        <time>2019-08-02T09:13:43Z</time>
      </trkpt>
      <trkpt lat="53.997494132998" lon="16.684038845428">
        <ele>128</ele>
        <time>2019-08-02T09:13:50Z</time>
      </trkpt>
      <trkpt lat="53.997644755741" lon="16.683813539956">
        <ele>128</ele>
        <time>2019-08-02T09:13:57Z</time>
      </trkpt>
      <trkpt lat="53.997813651026" lon="16.683654283856">
        <ele>130.6</ele>
        <time>2019-08-02T09:14:04Z</time>
      </trkpt>
      <trkpt lat="53.997968297081" lon="16.683490669168">
        <ele>130.4</ele>
        <time>2019-08-02T09:14:11Z</time>
      </trkpt>
      <trkpt lat="53.998143646429" lon="16.683303333703">
        <ele>130.4</ele>
        <time>2019-08-02T09:14:18Z</time>
      </trkpt>
      <trkpt lat="53.998302483434" lon="16.683151286037">
        <ele>131.4</ele>
        <time>2019-08-02T09:14:24Z</time>
      </trkpt>
      <trkpt lat="53.998465343751" lon="16.683002088217">
        <ele>130.6</ele>
        <time>2019-08-02T09:14:30Z</time>
      </trkpt>
      <trkpt lat="53.998637927072" lon="16.68282497867">
        <ele>128.8</ele>
        <time>2019-08-02T09:14:37Z</time>
      </trkpt>
      <trkpt lat="53.99880154176" lon="16.682662956543">
        <ele>127.2</ele>
        <time>2019-08-02T09:14:44Z</time>
      </trkpt>
      <trkpt lat="53.9989909727" lon="16.682512417619">
        <ele>126</ele>
        <time>2019-08-02T09:14:51Z</time>
      </trkpt>
      <trkpt lat="53.999152994827" lon="16.682360202315">
        <ele>124.8</ele>
        <time>2019-08-02T09:14:57Z</time>
      </trkpt>
      <trkpt lat="53.999311328918" lon="16.682199940387">
        <ele>123.6</ele>
        <time>2019-08-02T09:15:03Z</time>
      </trkpt>
      <trkpt lat="53.999459101815" lon="16.682000786443">
        <ele>122</ele>
        <time>2019-08-02T09:15:09Z</time>
      </trkpt>
      <trkpt lat="53.999580890822" lon="16.681773134039">
        <ele>121.6</ele>
        <time>2019-08-02T09:15:15Z</time>
      </trkpt>
      <trkpt lat="53.999681054527" lon="16.681509607103">
        <ele>120.8</ele>
        <time>2019-08-02T09:15:22Z</time>
      </trkpt>
      <trkpt lat="53.999774009798" lon="16.681231914756">
        <ele>119.6</ele>
        <time>2019-08-02T09:15:29Z</time>
      </trkpt>
      <trkpt lat="53.999865372508" lon="16.680927987062">
        <ele>119.8</ele>
        <time>2019-08-02T09:15:36Z</time>
      </trkpt>
      <trkpt lat="53.999954388286" lon="16.680617437667">
        <ele>120</ele>
        <time>2019-08-02T09:15:44Z</time>
      </trkpt>
      <trkpt lat="54.000041643865" lon="16.68034309808">
        <ele>121.8</ele>
        <time>2019-08-02T09:15:51Z</time>
      </trkpt>
      <trkpt lat="54.00013594024" lon="16.680053587254">
        <ele>121.4</ele>
        <time>2019-08-02T09:15:59Z</time>
      </trkpt>
      <trkpt lat="54.000214562462" lon="16.679768854111">
        <ele>121.2</ele>
        <time>2019-08-02T09:16:06Z</time>
      </trkpt>
      <trkpt lat="54.000308439742" lon="16.679463501494">
        <ele>120.2</ele>
        <time>2019-08-02T09:16:13Z</time>
      </trkpt>
      <trkpt lat="54.000402987574" lon="16.679179355084">
        <ele>120.6</ele>
        <time>2019-08-02T09:16:20Z</time>
      </trkpt>
      <trkpt lat="54.000492590085" lon="16.678886575317">
        <ele>122.2</ele>
        <time>2019-08-02T09:16:28Z</time>
      </trkpt>
      <trkpt lat="54.000572469592" lon="16.678609302065">
        <ele>122.6</ele>
        <time>2019-08-02T09:16:35Z</time>
      </trkpt>
      <trkpt lat="54.000659557533" lon="16.67832306018">
        <ele>123</ele>
        <time>2019-08-02T09:16:44Z</time>
      </trkpt>
      <trkpt lat="54.000734491719" lon="16.678037488847">
        <ele>121.8</ele>
        <time>2019-08-02T09:16:51Z</time>
      </trkpt>
      <trkpt lat="54.000826273524" lon="16.677737333008">
        <ele>121</ele>
        <time>2019-08-02T09:16:58Z</time>
      </trkpt>
      <trkpt lat="54.000908667601" lon="16.677446481078">
        <ele>119.8</ele>
        <time>2019-08-02T09:17:05Z</time>
      </trkpt>
      <trkpt lat="54.000987373642" lon="16.677144648859">
        <ele>119</ele>
        <time>2019-08-02T09:17:12Z</time>
      </trkpt>
      <trkpt lat="54.001058284516" lon="16.67684700759">
        <ele>119.6</ele>
        <time>2019-08-02T09:17:19Z</time>
      </trkpt>
      <trkpt lat="54.001151323606" lon="16.676560430429">
        <ele>120</ele>
        <time>2019-08-02T09:17:27Z</time>
      </trkpt>
      <trkpt lat="54.001245200886" lon="16.676271422517">
        <ele>122.2</ele>
        <time>2019-08-02T09:17:35Z</time>
      </trkpt>
      <trkpt lat="54.001341760374" lon="16.675989958315">
        <ele>122.8</ele>
        <time>2019-08-02T09:17:43Z</time>
      </trkpt>
      <trkpt lat="54.001485509959" lon="16.675651832469">
        <ele>122</ele>
        <time>2019-08-02T09:17:53Z</time>
      </trkpt>
      <trkpt lat="54.001621464377" lon="16.675434238345">
        <ele>120</ele>
        <time>2019-08-02T09:18:00Z</time>
      </trkpt>
      <trkpt lat="54.001773512043" lon="16.67523516822">
        <ele>120.6</ele>
        <time>2019-08-02T09:18:07Z</time>
      </trkpt>
      <trkpt lat="54.001920614388" lon="16.675043390348">
        <ele>121.8</ele>
        <time>2019-08-02T09:18:14Z</time>
      </trkpt>
      <trkpt lat="54.002076936823" lon="16.674869968837">
        <ele>123.2</ele>
        <time>2019-08-02T09:18:21Z</time>
      </trkpt>
      <trkpt lat="54.002234935638" lon="16.674716915343">
        <ele>123.8</ele>
        <time>2019-08-02T09:18:28Z</time>
      </trkpt>
      <trkpt lat="54.002408105692" lon="16.674541230719">
        <ele>123.4</ele>
        <time>2019-08-02T09:18:36Z</time>
      </trkpt>
      <trkpt lat="54.002562919385" lon="16.674367222475">
        <ele>123</ele>
        <time>2019-08-02T09:18:44Z</time>
      </trkpt>
      <trkpt lat="54.002716391974" lon="16.674171002196">
        <ele>124.2</ele>
        <time>2019-08-02T09:18:52Z</time>
      </trkpt>
      <trkpt lat="54.002879587567" lon="16.674015015037">
        <ele>123.4</ele>
        <time>2019-08-02T09:19:00Z</time>
      </trkpt>
      <trkpt lat="54.00305284144" lon="16.673846706485">
        <ele>123.8</ele>
        <time>2019-08-02T09:19:08Z</time>
      </trkpt>
      <trkpt lat="54.003218886879" lon="16.673644870333">
        <ele>124.2</ele>
        <time>2019-08-02T09:19:16Z</time>
      </trkpt>
      <trkpt lat="54.003384429404" lon="16.673484943681">
        <ele>122.6</ele>
        <time>2019-08-02T09:19:24Z</time>
      </trkpt>
      <trkpt lat="54.003549133739" lon="16.673355191869">
        <ele>122.2</ele>
        <time>2019-08-02T09:19:31Z</time>
      </trkpt>
      <trkpt lat="54.00372255525" lon="16.673185961308">
        <ele>120.6</ele>
        <time>2019-08-02T09:19:39Z</time>
      </trkpt>
      <trkpt lat="54.003864125541" lon="16.672995356902">
        <ele>122.6</ele>
        <time>2019-08-02T09:19:46Z</time>
      </trkpt>
      <trkpt lat="54.004008461859" lon="16.672807434704">
        <ele>122.8</ele>
        <time>2019-08-02T09:19:53Z</time>
      </trkpt>
      <trkpt lat="54.004170400167" lon="16.672653207744">
        <ele>123.2</ele>
        <time>2019-08-02T09:20:00Z</time>
      </trkpt>
      <trkpt lat="54.004338708719" lon="16.672482384622">
        <ele>123.6</ele>
        <time>2019-08-02T09:20:07Z</time>
      </trkpt>
      <trkpt lat="54.004499641199" lon="16.672299240107">
        <ele>125.6</ele>
        <time>2019-08-02T09:20:14Z</time>
      </trkpt>
      <trkpt lat="54.004677337479" lon="16.67211961599">
        <ele>125.8</ele>
        <time>2019-08-02T09:20:21Z</time>
      </trkpt>
      <trkpt lat="54.004853022103" lon="16.671960443709">
        <ele>123.2</ele>
        <time>2019-08-02T09:20:28Z</time>
      </trkpt>
      <trkpt lat="54.005011523832" lon="16.671814598649">
        <ele>120.2</ele>
        <time>2019-08-02T09:20:34Z</time>
      </trkpt>
      <trkpt lat="54.005185783533" lon="16.671628855745">
        <ele>117.2</ele>
        <time>2019-08-02T09:20:41Z</time>
      </trkpt>
      <trkpt lat="54.005360629967" lon="16.671462055935">
        <ele>115.2</ele>
        <time>2019-08-02T09:20:48Z</time>
      </trkpt>
      <trkpt lat="54.005527848872" lon="16.671279581972">
        <ele>113.4</ele>
        <time>2019-08-02T09:20:55Z</time>
      </trkpt>
      <trkpt lat="54.005704204048" lon="16.671103478253">
        <ele>111.4</ele>
        <time>2019-08-02T09:21:02Z</time>
      </trkpt>
      <trkpt lat="54.005856000257" lon="16.670949335112">
        <ele>110.8</ele>
        <time>2019-08-02T09:21:09Z</time>
      </trkpt>
      <trkpt lat="54.005806966142" lon="16.671007505498">
        <ele>112.2</ele>
        <time>2019-08-02T09:21:48Z</time>
      </trkpt>
      <trkpt lat="54.005647710042" lon="16.671199870103">
        <ele>114.2</ele>
        <time>2019-08-02T09:21:57Z</time>
      </trkpt>
      <trkpt lat="54.005495578557" lon="16.671366753732">
        <ele>115.6</ele>
        <time>2019-08-02T09:22:04Z</time>
      </trkpt>
      <trkpt lat="54.005323246693" lon="16.671561046174">
        <ele>116.8</ele>
        <time>2019-08-02T09:22:11Z</time>
      </trkpt>
      <trkpt lat="54.00515921291" lon="16.671773359701">
        <ele>119.6</ele>
        <time>2019-08-02T09:22:18Z</time>
      </trkpt>
      <trkpt lat="54.005007165244" lon="16.671946194479">
        <ele>121.8</ele>
        <time>2019-08-02T09:22:25Z</time>
      </trkpt>
      <trkpt lat="54.004846065126" lon="16.6721271597">
        <ele>122.8</ele>
        <time>2019-08-02T09:22:32Z</time>
      </trkpt>
      <trkpt lat="54.004686054655" lon="16.672302425229">
        <ele>125</ele>
        <time>2019-08-02T09:22:39Z</time>
      </trkpt>
      <trkpt lat="54.004525289813" lon="16.672488168133">
        <ele>125.4</ele>
        <time>2019-08-02T09:22:46Z</time>
      </trkpt>
      <trkpt lat="54.004363854419" lon="16.672655387038">
        <ele>126.2</ele>
        <time>2019-08-02T09:22:53Z</time>
      </trkpt>
      <trkpt lat="54.004200826464" lon="16.672825958703">
        <ele>125</ele>
        <time>2019-08-02T09:23:01Z</time>
      </trkpt>
      <trkpt lat="54.004028410781" lon="16.67298965721">
        <ele>125.4</ele>
        <time>2019-08-02T09:23:09Z</time>
      </trkpt>
      <trkpt lat="54.003863538808" lon="16.673160061237">
        <ele>126.2</ele>
        <time>2019-08-02T09:23:17Z</time>
      </trkpt>
      <trkpt lat="54.003710652952" lon="16.673331974006">
        <ele>127.4</ele>
        <time>2019-08-02T09:23:25Z</time>
      </trkpt>
      <trkpt lat="54.003543014952" lon="16.673529283932">
        <ele>127.8</ele>
        <time>2019-08-02T09:23:33Z</time>
      </trkpt>
      <trkpt lat="54.003368503794" lon="16.673717122311">
        <ele>128.8</ele>
        <time>2019-08-02T09:23:41Z</time>
      </trkpt>
      <trkpt lat="54.003210672617" lon="16.673901524111">
        <ele>126.8</ele>
        <time>2019-08-02T09:23:48Z</time>
      </trkpt>
      <trkpt lat="54.003053511992" lon="16.674049883741">
        <ele>124.4</ele>
        <time>2019-08-02T09:23:55Z</time>
      </trkpt>
      <trkpt lat="54.002894842625" lon="16.674243170355">
        <ele>125.2</ele>
        <time>2019-08-02T09:24:02Z</time>
      </trkpt>
      <trkpt lat="54.002649504412" lon="16.674505859101">
        <ele>126.8</ele>
        <time>2019-08-02T09:24:13Z</time>
      </trkpt>
      <trkpt lat="54.002493684891" lon="16.674705767416">
        <ele>125.8</ele>
        <time>2019-08-02T09:24:20Z</time>
      </trkpt>
      <trkpt lat="54.002332081859" lon="16.674876003805">
        <ele>126</ele>
        <time>2019-08-02T09:24:27Z</time>
      </trkpt>
      <trkpt lat="54.002166204058" lon="16.67507004479">
        <ele>124.2</ele>
        <time>2019-08-02T09:24:34Z</time>
      </trkpt>
      <trkpt lat="54.001993201642" lon="16.675240951731">
        <ele>123.6</ele>
        <time>2019-08-02T09:24:41Z</time>
      </trkpt>
      <trkpt lat="54.001832939714" lon="16.675420072934">
        <ele>123.6</ele>
        <time>2019-08-02T09:24:48Z</time>
      </trkpt>
      <trkpt lat="54.001672510148" lon="16.675632051185">
        <ele>124</ele>
        <time>2019-08-02T09:24:56Z</time>
      </trkpt>
      <trkpt lat="54.001528509106" lon="16.675874036638">
        <ele>121.2</ele>
        <time>2019-08-02T09:25:04Z</time>
      </trkpt>
      <trkpt lat="54.001431111428" lon="16.676161200532">
        <ele>118.8</ele>
        <time>2019-08-02T09:25:13Z</time>
      </trkpt>
      <trkpt lat="54.001433542179" lon="16.676193554666">
        <ele>118.4</ele>
        <time>2019-08-02T09:25:14Z</time>
      </trkpt>
      <trkpt lat="54.001585338388" lon="16.67634576997">
        <ele>116.4</ele>
        <time>2019-08-02T09:25:22Z</time>
      </trkpt>
      <trkpt lat="54.001752641112" lon="16.676462781294">
        <ele>117.4</ele>
        <time>2019-08-02T09:25:29Z</time>
      </trkpt>
      <trkpt lat="54.001936707636" lon="16.676533273073">
        <ele>119.8</ele>
        <time>2019-08-02T09:25:37Z</time>
      </trkpt>
      <trkpt lat="54.002130497164" lon="16.676528830666">
        <ele>122.4</ele>
        <time>2019-08-02T09:25:45Z</time>
      </trkpt>
      <trkpt lat="54.002330237841" lon="16.676514581436">
        <ele>122.8</ele>
        <time>2019-08-02T09:25:53Z</time>
      </trkpt>
      <trkpt lat="54.002526709577" lon="16.676434534291">
        <ele>121.6</ele>
        <time>2019-08-02T09:26:01Z</time>
      </trkpt>
      <trkpt lat="54.002687725876" lon="16.676296903493">
        <ele>120.8</ele>
        <time>2019-08-02T09:26:08Z</time>
      </trkpt>
      <trkpt lat="54.002846730519" lon="16.676134797547">
        <ele>121</ele>
        <time>2019-08-02T09:26:16Z</time>
      </trkpt>
      <trkpt lat="54.002883778517" lon="16.676104119793">
        <ele>121.4</ele>
        <time>2019-08-02T09:26:18Z</time>
      </trkpt>
      <trkpt lat="54.002900626136" lon="16.676110406218">
        <ele>120.8</ele>
        <time>2019-08-02T09:26:21Z</time>
      </trkpt>
      <trkpt lat="54.002772802161" lon="16.67634409359">
        <ele>117.4</ele>
        <time>2019-08-02T09:26:29Z</time>
      </trkpt>
      <trkpt lat="54.002600805573" lon="16.676472923393">
        <ele>117.8</ele>
        <time>2019-08-02T09:26:37Z</time>
      </trkpt>
      <trkpt lat="54.002422271103" lon="16.676602842843">
        <ele>120.4</ele>
        <time>2019-08-02T09:26:45Z</time>
      </trkpt>
      <trkpt lat="54.00224147352" lon="16.676638046823">
        <ele>123.2</ele>
        <time>2019-08-02T09:26:53Z</time>
      </trkpt>
      <trkpt lat="54.002054473331" lon="16.676610302734">
        <ele>125.6</ele>
        <time>2019-08-02T09:27:01Z</time>
      </trkpt>
      <trkpt lat="54.001855738482" lon="16.676569231424">
        <ele>127</ele>
        <time>2019-08-02T09:27:08Z</time>
      </trkpt>
      <trkpt lat="54.001681478781" lon="16.676463284208">
        <ele>127.4</ele>
        <time>2019-08-02T09:27:14Z</time>
      </trkpt>
      <trkpt lat="54.001503531044" lon="16.676335795509">
        <ele>126.4</ele>
        <time>2019-08-02T09:27:20Z</time>
      </trkpt>
      <trkpt lat="54.00137310868" lon="16.676279301503">
        <ele>124.8</ele>
        <time>2019-08-02T09:27:25Z</time>
      </trkpt>
      <trkpt lat="54.001277974115" lon="16.676558167316">
        <ele>121.6</ele>
        <time>2019-08-02T09:27:32Z</time>
      </trkpt>
      <trkpt lat="54.001194658029" lon="16.676855557128">
        <ele>120.2</ele>
        <time>2019-08-02T09:27:39Z</time>
      </trkpt>
      <trkpt lat="54.001089213727" lon="16.677119084064">
        <ele>120.4</ele>
        <time>2019-08-02T09:27:46Z</time>
      </trkpt>
      <trkpt lat="54.000979829932" lon="16.677361320974">
        <ele>119.8</ele>
        <time>2019-08-02T09:27:53Z</time>
      </trkpt>
      <trkpt lat="54.000882599892" lon="16.677657285863">
        <ele>119.4</ele>
        <time>2019-08-02T09:28:01Z</time>
      </trkpt>
      <trkpt lat="54.000789896078" lon="16.677927937414">
        <ele>118.4</ele>
        <time>2019-08-02T09:28:08Z</time>
      </trkpt>
      <trkpt lat="54.000703981603" lon="16.67821744824">
        <ele>119</ele>
        <time>2019-08-02T09:28:15Z</time>
      </trkpt>
      <trkpt lat="54.000620916974" lon="16.678519364278">
        <ele>118.6</ele>
        <time>2019-08-02T09:28:22Z</time>
      </trkpt>
      <trkpt lat="54.000521172364" lon="16.678808791285">
        <ele>118.4</ele>
        <time>2019-08-02T09:28:29Z</time>
      </trkpt>
      <trkpt lat="54.000438191554" lon="16.679084052881">
        <ele>118</ele>
        <time>2019-08-02T09:28:36Z</time>
      </trkpt>
      <trkpt lat="54.000353282907" lon="16.67939091424">
        <ele>117</ele>
        <time>2019-08-02T09:28:43Z</time>
      </trkpt>
      <trkpt lat="54.000262171654" lon="16.679687968776">
        <ele>117.4</ele>
        <time>2019-08-02T09:28:50Z</time>
      </trkpt>
      <trkpt lat="54.000181453957" lon="16.67997848543">
        <ele>117</ele>
        <time>2019-08-02T09:28:57Z</time>
      </trkpt>
      <trkpt lat="54.000101155355" lon="16.680269504998">
        <ele>116.4</ele>
        <time>2019-08-02T09:29:04Z</time>
      </trkpt>
      <trkpt lat="54.000017923088" lon="16.680575528167">
        <ele>116.4</ele>
        <time>2019-08-02T09:29:11Z</time>
      </trkpt>
      <trkpt lat="53.999934690821" lon="16.680862272966">
        <ele>118.2</ele>
        <time>2019-08-02T09:29:18Z</time>
      </trkpt>
      <trkpt lat="53.999843831025" lon="16.681155807104">
        <ele>117.2</ele>
        <time>2019-08-02T09:29:25Z</time>
      </trkpt>
      <trkpt lat="53.999756743084" lon="16.6814226868">
        <ele>116.2</ele>
        <time>2019-08-02T09:29:32Z</time>
      </trkpt>
      <trkpt lat="53.999671834437" lon="16.681697194025">
        <ele>115.8</ele>
        <time>2019-08-02T09:29:39Z</time>
      </trkpt>
      <trkpt lat="53.999551302715" lon="16.681952590518">
        <ele>116</ele>
        <time>2019-08-02T09:29:47Z</time>
      </trkpt>
      <trkpt lat="53.999281908449" lon="16.682336816814">
        <ele>119</ele>
        <time>2019-08-02T09:30:02Z</time>
      </trkpt>
      <trkpt lat="53.999121897978" lon="16.682482410417">
        <ele>118.6</ele>
        <time>2019-08-02T09:30:10Z</time>
      </trkpt>
      <trkpt lat="53.998949817571" lon="16.682645103096">
        <ele>118.4</ele>
        <time>2019-08-02T09:30:18Z</time>
      </trkpt>
      <trkpt lat="53.998784610322" lon="16.682804778291">
        <ele>118.4</ele>
        <time>2019-08-02T09:30:26Z</time>
      </trkpt>
      <trkpt lat="53.99862887462" lon="16.682959340527">
        <ele>118.4</ele>
        <time>2019-08-02T09:30:34Z</time>
      </trkpt>
      <trkpt lat="53.998457297127" lon="16.683125134509">
        <ele>119.8</ele>
        <time>2019-08-02T09:30:42Z</time>
      </trkpt>
      <trkpt lat="53.99828018758" lon="16.683271147207">
        <ele>121.2</ele>
        <time>2019-08-02T09:30:50Z</time>
      </trkpt>
      <trkpt lat="53.998114561236" lon="16.683463595631">
        <ele>122.4</ele>
        <time>2019-08-02T09:30:58Z</time>
      </trkpt>
      <trkpt lat="53.99797508642" lon="16.68366400686">
        <ele>122.2</ele>
        <time>2019-08-02T09:31:05Z</time>
      </trkpt>
      <trkpt lat="53.997813651026" lon="16.683803062581">
        <ele>121.2</ele>
        <time>2019-08-02T09:31:12Z</time>
      </trkpt>
      <trkpt lat="53.997652299451" lon="16.683958546826">
        <ele>120.4</ele>
        <time>2019-08-02T09:31:19Z</time>
      </trkpt>
      <trkpt lat="53.997474267895" lon="16.684082179851">
        <ele>118.8</ele>
        <time>2019-08-02T09:31:27Z</time>
      </trkpt>
      <trkpt lat="53.997304785877" lon="16.684213440405">
        <ele>118.4</ele>
        <time>2019-08-02T09:31:34Z</time>
      </trkpt>
      <trkpt lat="53.997135052402" lon="16.68433623524">
        <ele>118.4</ele>
        <time>2019-08-02T09:31:41Z</time>
      </trkpt>
      <trkpt lat="53.996968923144" lon="16.684479314273">
        <ele>119.2</ele>
        <time>2019-08-02T09:31:48Z</time>
      </trkpt>
      <trkpt lat="53.996787287371" lon="16.68458853043">
        <ele>121.2</ele>
        <time>2019-08-02T09:31:55Z</time>
      </trkpt>
      <trkpt lat="53.996609926367" lon="16.684706799039">
        <ele>123.4</ele>
        <time>2019-08-02T09:32:02Z</time>
      </trkpt>
      <trkpt lat="53.996430721345" lon="16.684847112045">
        <ele>126.2</ele>
        <time>2019-08-02T09:32:10Z</time>
      </trkpt>
      <trkpt lat="53.996279847145" lon="16.685030088922">
        <ele>129.4</ele>
        <time>2019-08-02T09:32:18Z</time>
      </trkpt>
      <trkpt lat="53.996100642123" lon="16.685201079682">
        <ele>133.4</ele>
        <time>2019-08-02T09:32:26Z</time>
      </trkpt>
      <trkpt lat="53.995931076286" lon="16.68537475265">
        <ele>135</ele>
        <time>2019-08-02T09:32:34Z</time>
      </trkpt>
      <trkpt lat="53.995787326701" lon="16.685565943789">
        <ele>135.8</ele>
        <time>2019-08-02T09:32:42Z</time>
      </trkpt>
      <trkpt lat="53.995638045062" lon="16.685774150185">
        <ele>137</ele>
        <time>2019-08-02T09:32:50Z</time>
      </trkpt>
      <trkpt lat="53.99550242592" lon="16.685999288019">
        <ele>137.8</ele>
        <time>2019-08-02T09:32:57Z</time>
      </trkpt>
      <trkpt lat="53.995384911682" lon="16.686248230449">
        <ele>137.4</ele>
        <time>2019-08-02T09:33:04Z</time>
      </trkpt>
      <trkpt lat="53.995309306944" lon="16.686540758759">
        <ele>136.6</ele>
        <time>2019-08-02T09:33:11Z</time>
      </trkpt>
      <trkpt lat="53.995239737174" lon="16.686826916825">
        <ele>134.4</ele>
        <time>2019-08-02T09:33:18Z</time>
      </trkpt>
      <trkpt lat="53.995148793559" lon="16.687109722131">
        <ele>133.2</ele>
        <time>2019-08-02T09:33:25Z</time>
      </trkpt>
      <trkpt lat="53.994978976265" lon="16.687282137814">
        <ele>133.4</ele>
        <time>2019-08-02T09:33:32Z</time>
      </trkpt>
      <trkpt lat="53.994795245017" lon="16.687318012346">
        <ele>133.8</ele>
        <time>2019-08-02T09:33:39Z</time>
      </trkpt>
      <trkpt lat="53.994602042222" lon="16.687342068399">
        <ele>134.4</ele>
        <time>2019-08-02T09:33:46Z</time>
      </trkpt>
      <trkpt lat="53.99440188245" lon="16.687325723694">
        <ele>134.2</ele>
        <time>2019-08-02T09:33:54Z</time>
      </trkpt>
      <trkpt lat="53.994327870273" lon="16.687408955961">
        <ele>133.8</ele>
        <time>2019-08-02T09:33:58Z</time>
      </trkpt>
      <trkpt lat="53.994331977404" lon="16.687456146058">
        <ele>133.2</ele>
        <time>2019-08-02T09:34:00Z</time>
      </trkpt>
      <trkpt lat="53.994520570154" lon="16.68740484883">
        <ele>131</ele>
        <time>2019-08-02T09:34:08Z</time>
      </trkpt>
      <trkpt lat="53.994705977782" lon="16.68733527906">
        <ele>129.6</ele>
        <time>2019-08-02T09:34:15Z</time>
      </trkpt>
      <trkpt lat="53.994904293536" lon="16.687271241344">
        <ele>129.4</ele>
        <time>2019-08-02T09:34:22Z</time>
      </trkpt>
      <trkpt lat="53.995083247101" lon="16.687156409314">
        <ele>129.8</ele>
        <time>2019-08-02T09:34:29Z</time>
      </trkpt>
      <trkpt lat="53.995199504054" lon="16.686915513508">
        <ele>130.4</ele>
        <time>2019-08-02T09:34:36Z</time>
      </trkpt>
      <trkpt lat="53.995269660557" lon="16.686602701">
        <ele>131.8</ele>
        <time>2019-08-02T09:34:43Z</time>
      </trkpt>
      <trkpt lat="53.995293548972" lon="16.686296342555">
        <ele>132.2</ele>
        <time>2019-08-02T09:34:50Z</time>
      </trkpt>
      <trkpt lat="53.995374601945" lon="16.685998952743">
        <ele>134.4</ele>
        <time>2019-08-02T09:34:57Z</time>
      </trkpt>
      <trkpt lat="53.99549907316" lon="16.68574271806">
        <ele>135.2</ele>
        <time>2019-08-02T09:35:04Z</time>
      </trkpt>
      <trkpt lat="53.995645169677" lon="16.68551221581">
        <ele>134.4</ele>
        <time>2019-08-02T09:35:11Z</time>
      </trkpt>
      <trkpt lat="53.995799731913" lon="16.685326221449">
        <ele>133.2</ele>
        <time>2019-08-02T09:35:18Z</time>
      </trkpt>
      <trkpt lat="53.995813142953" lon="16.685307445993">
        <ele>132.8</ele>
        <time>2019-08-02T09:35:19Z</time>
      </trkpt>
      <trkpt lat="53.99580165975" lon="16.685286910338">
        <ele>127.4</ele>
        <time>2019-08-02T09:38:21Z</time>
      </trkpt>
      <trkpt lat="53.995791266194" lon="16.685267212873">
        <ele>127.8</ele>
        <time>2019-08-02T09:38:22Z</time>
      </trkpt>
      <trkpt lat="53.99574801559" lon="16.684952556347">
        <ele>130</ele>
        <time>2019-08-02T09:38:30Z</time>
      </trkpt>
      <trkpt lat="53.995810963659" lon="16.684662207331">
        <ele>131</ele>
        <time>2019-08-02T09:38:37Z</time>
      </trkpt>
      <trkpt lat="53.995799564275" lon="16.684641001124">
        <ele>131</ele>
        <time>2019-08-02T09:38:38Z</time>
      </trkpt>
      <trkpt lat="53.995800402465" lon="16.685258830973">
        <ele>131</ele>
        <time>2019-08-02T09:38:53Z</time>
      </trkpt>
      <trkpt lat="53.99579411604" lon="16.685290346917">
        <ele>131.2</ele>
        <time>2019-08-02T09:38:54Z</time>
      </trkpt>
      <trkpt lat="53.995773412747" lon="16.685303674138">
        <ele>131.4</ele>
        <time>2019-08-02T09:38:56Z</time>
      </trkpt>
      <trkpt lat="53.995772826014" lon="16.685267715787">
        <ele>133.2</ele>
        <time>2019-08-02T09:38:58Z</time>
      </trkpt>
      <trkpt lat="53.995738041129" lon="16.684966973215">
        <ele>134.2</ele>
        <time>2019-08-02T09:39:05Z</time>
      </trkpt>
      <trkpt lat="53.995699819665" lon="16.68487267684">
        <ele>133.6</ele>
        <time>2019-08-02T09:39:08Z</time>
      </trkpt>
    </trkseg>
  </trk>
</gpx>